Date,TemperatureHighF,TemperatureAvgF,TemperatureLowF,DewpointHighF,DewpointAvgF,DewpointLowF,HumidityHigh,HumidityAvg,HumidityLow,PressureMaxIn,PressureMinIn,WindSpeedMaxMPH,WindSpeedAvgMPH,GustSpeedMaxMPH,PrecipitationSumIn
2013-7-1,84,72,64,74,68,63,99,90,64,29.73,29.59,7,0,0,0.69
2013-7-2,88,74,66,75,69,66,99,87,55,29.86,29.72,6,1,0,0.07
2013-7-3,76,72,68,74,70,68,99,96,88,29.97,29.87,3,0,0,0.07
2013-7-4,78,71,68,75,70,68,99,97,86,29.96,29.87,3,0,0,1.55
2013-7-5,76,72,69,74,71,68,99,98,90,29.99,29.91,5,1,0,0.45
2013-7-6,73,71,69,73,70,68,99,99,96,29.97,29.92,3,0,0,2.47
2013-7-7,83,73,68,77,72,68,99,96,82,29.99,29.90,4,0,0,1.37
2013-7-8,94,77,71,81,74,70,99,92,66,30.03,29.90,3,0,0,0.01
2013-7-9,96,80,72,81,75,71,99,88,62,29.99,29.86,3,0,0,0.00
2013-7-10,92,78,64,80,75,64,99,90,66,29.91,29.72,4,0,0,0.15
2013-7-11,94,76,70,78,72,8,99,89,5,29.81,29.68,3,0,0,0.37
2013-7-12,92,75,67,74,70,64,99,85,52,29.80,29.72,5,1,0,0.00
2013-7-13,87,73,62,75,68,62,99,86,64,29.89,29.77,6,1,0,0.00
2013-7-14,97,77,69,77,73,69,99,89,53,30.01,29.88,3,1,0,0.23
2013-7-15,92,77,68,78,72,68,99,87,58,30.12,30.01,4,1,0,0.12
2013-7-16,95,78,69,78,74,69,99,89,58,30.15,30.04,3,0,0,0.10
2013-7-17,95,79,69,81,74,69,99,86,59,30.12,29.96,4,1,0,0.02
2013-7-18,95,80,70,80,73,70,99,83,59,30.05,29.86,3,0,0,0.02
2013-7-19,100,81,72,80,74,71,99,81,53,29.94,29.77,4,0,0,0.01
2013-7-20,93,79,70,77,73,68,99,83,50,29.85,29.71,4,0,0,0.00
2013-7-21,89,77,71,78,74,71,99,90,65,29.84,29.74,6,0,0,0.29
2013-7-22,89,76,70,77,72,69,99,88,58,29.81,29.66,6,1,0,0.00
2013-7-23,86,77,71,76,72,69,96,87,70,29.76,29.64,4,1,0,0.00
2013-7-24,90,76,69,78,72,67,99,88,63,29.71,29.63,4,0,0,0.15
2013-7-25,96,75,64,75,68,63,99,82,52,29.86,29.71,5,1,0,0.00
2013-7-26,94,75,62,74,67,61,99,80,48,29.91,29.78,4,1,0,0.00
2013-7-27,92,76,68,74,70,67,98,84,47,29.82,29.68,3,0,0,0.01
2013-7-28,85,75,67,73,68,63,97,81,57,29.90,29.74,4,1,0,0.00
2013-7-29,91,70,60,69,62,57,95,78,42,30.01,29.89,4,0,0,0.00
2013-7-30,87,73,63,74,67,62,98,84,56,30.07,29.92,3,0,0,0.00
2013-7-31,80,72,68,74,70,66,99,94,83,29.98,29.78,11,0,0,0.54